createdAt,value
2023-02-19T00:01:54.029Z,10.80
2023-02-19T00:04:23.768Z,10.80
2023-02-19T00:06:52.407Z,10.80
2023-02-19T00:09:22.103Z,10.80
2023-02-19T00:11:50.915Z,10.80
2023-02-19T00:14:21.344Z,10.80
2023-02-19T00:16:50.417Z,10.70
2023-02-19T00:19:21.066Z,10.80
2023-02-19T00:21:51.653Z,10.80
2023-02-19T00:24:22.430Z,10.80
2023-02-19T00:26:50.810Z,10.80
2023-02-19T00:29:21.551Z,10.80
2023-02-19T00:31:50.148Z,10.90
2023-02-19T00:34:18.507Z,10.90
2023-02-19T00:36:46.920Z,10.90
2023-02-19T00:39:18.216Z,10.90
2023-02-19T00:41:48.318Z,10.80
2023-02-19T00:44:17.025Z,10.80
2023-02-19T00:46:47.966Z,10.80
2023-02-19T00:49:19.046Z,10.90
2023-02-19T00:51:48.002Z,10.90
2023-02-19T00:54:16.786Z,10.90
2023-02-19T00:56:45.449Z,10.90
2023-02-19T00:59:15.293Z,11.00
2023-02-19T01:01:45.448Z,10.90
2023-02-19T01:04:14.946Z,11.00
2023-02-19T01:06:43.537Z,10.90
2023-02-19T01:09:12.043Z,10.90
2023-02-19T01:11:40.607Z,11.00
2023-02-19T01:14:10.639Z,11.00
2023-02-19T01:16:40.362Z,11.00
2023-02-19T01:19:08.679Z,11.00
2023-02-19T01:21:37.008Z,11.00
2023-02-19T01:24:05.597Z,11.00
2023-02-19T01:26:35.045Z,11.00
2023-02-19T01:29:05.189Z,10.90
2023-02-19T01:31:34.306Z,11.00
2023-02-19T01:34:06.417Z,10.90
2023-02-19T01:36:36.852Z,10.90
2023-02-19T01:39:07.500Z,10.90
2023-02-19T01:41:39.560Z,10.80
2023-02-19T01:44:29.522Z,10.80
2023-02-19T01:46:58.830Z,10.90
2023-02-19T01:49:31.090Z,10.90
2023-02-19T01:52:03.010Z,10.90
2023-02-19T01:54:35.908Z,10.90
2023-02-19T01:57:08.496Z,10.90
2023-02-19T01:59:36.912Z,10.80
2023-02-19T02:02:05.789Z,10.80
2023-02-19T02:04:36.143Z,10.90
2023-02-19T02:07:27.578Z,10.90
2023-02-19T02:10:14.147Z,10.90
2023-02-19T02:12:42.506Z,10.90
2023-02-19T02:15:10.969Z,11.00
2023-02-19T02:17:47.297Z,11.00
2023-02-19T02:20:34.335Z,11.00
2023-02-19T02:23:10.735Z,10.90
2023-02-19T02:26:09.655Z,10.80
2023-02-19T02:29:02.576Z,10.80
2023-02-19T02:31:36.891Z,10.90
2023-02-19T02:34:10.801Z,10.80
2023-02-19T02:36:43.068Z,10.80
2023-02-19T02:39:18.338Z,10.80
2023-02-19T02:42:12.863Z,10.80
2023-02-19T02:44:42.642Z,10.80
2023-02-19T02:47:32.556Z,10.80
2023-02-19T02:50:07.501Z,10.90
2023-02-19T02:52:57.192Z,10.80
2023-02-19T02:55:27.071Z,10.80
2023-02-19T02:57:55.640Z,10.80
2023-02-19T03:00:25.702Z,10.60
2023-02-19T03:02:56.174Z,10.60
2023-02-19T03:05:44.689Z,10.60
2023-02-19T03:08:17.193Z,10.60
2023-02-19T03:10:51.160Z,10.60
2023-02-19T03:13:49.993Z,10.60
2023-02-19T03:16:43.046Z,10.60
2023-02-19T03:19:22.304Z,10.60
2023-02-19T03:21:56.691Z,10.50
2023-02-19T03:24:46.421Z,10.50
2023-02-19T03:27:16.495Z,10.50
2023-02-19T03:29:52.316Z,10.50
2023-02-19T03:32:26.558Z,10.50
2023-02-19T03:35:03.535Z,10.50
2023-02-19T03:37:39.696Z,10.50
2023-02-19T03:40:09.119Z,10.40
2023-02-19T03:42:43.276Z,10.40
2023-02-19T03:45:28.534Z,10.50
2023-02-19T03:48:07.199Z,10.50
2023-02-19T03:50:44.713Z,10.40
2023-02-19T03:53:18.497Z,10.40
2023-02-19T03:55:55.189Z,10.40
2023-02-19T03:58:29.911Z,10.40
2023-02-19T04:01:03.722Z,10.40
2023-02-19T04:03:38.563Z,10.40
2023-02-19T04:06:13.170Z,10.30
2023-02-19T04:08:45.308Z,10.30
2023-02-19T04:11:17.639Z,10.30
2023-02-19T04:13:51.332Z,10.40
2023-02-19T04:16:24.126Z,10.30
2023-02-19T04:18:56.035Z,10.40
2023-02-19T04:21:27.795Z,10.40
2023-02-19T04:23:59.255Z,10.40
2023-02-19T04:26:27.795Z,10.40
2023-02-19T04:28:56.535Z,10.40
2023-02-19T04:31:26.298Z,10.40
2023-02-19T04:33:54.761Z,10.40
2023-02-19T04:36:23.076Z,10.40
2023-02-19T04:38:52.723Z,10.40
2023-02-19T04:41:21.023Z,10.40
2023-02-19T04:43:49.333Z,10.40
2023-02-19T04:46:17.715Z,10.40
2023-02-19T04:48:46.167Z,10.30
2023-02-19T04:51:14.473Z,10.40
2023-02-19T04:53:42.813Z,10.30
2023-02-19T04:56:14.439Z,10.30
2023-02-19T04:58:43.580Z,10.30
2023-02-19T05:01:12.886Z,10.40
2023-02-19T05:03:41.647Z,10.40
2023-02-19T05:06:13.191Z,10.40
2023-02-19T05:08:41.817Z,10.40
2023-02-19T05:11:13.268Z,10.40
2023-02-19T05:13:42.059Z,10.30
2023-02-19T05:16:16.265Z,10.30
2023-02-19T05:18:46.635Z,10.30
2023-02-19T05:21:16.262Z,10.30
2023-02-19T05:23:44.911Z,10.30
2023-02-19T05:26:17.870Z,10.30
2023-02-19T05:28:46.835Z,10.20
2023-02-19T05:31:15.535Z,10.30
2023-02-19T05:33:44.392Z,10.30
2023-02-19T05:36:14.436Z,10.40
2023-02-19T05:38:43.089Z,10.40
2023-02-19T05:41:15.233Z,10.40
2023-02-19T05:43:45.700Z,10.40
2023-02-19T05:46:15.715Z,10.40
2023-02-19T05:48:44.553Z,10.40
2023-02-19T05:51:14.891Z,10.40
2023-02-19T05:53:44.200Z,10.30
2023-02-19T05:56:28.666Z,10.40
2023-02-19T05:58:57.801Z,10.40
2023-02-19T06:01:28.497Z,10.40
2023-02-19T06:03:57.907Z,10.40
2023-02-19T06:06:27.930Z,10.40
2023-02-19T06:08:56.292Z,10.30
2023-02-19T06:11:26.292Z,10.30
2023-02-19T06:13:54.617Z,10.30
2023-02-19T06:16:23.320Z,10.30
2023-02-19T06:18:51.694Z,10.30
2023-02-19T06:21:20.698Z,10.30
2023-02-19T06:23:49.065Z,10.30
2023-02-19T06:26:19.514Z,10.30
2023-02-19T06:28:50.546Z,10.30
2023-02-19T06:31:19.683Z,10.20
2023-02-19T06:33:48.398Z,10.30
2023-02-19T06:36:19.674Z,10.20
2023-02-19T06:38:48.106Z,10.20
2023-02-19T06:41:16.825Z,10.20
2023-02-19T06:43:46.516Z,10.20
2023-02-19T06:46:16.544Z,10.20
2023-02-19T06:48:46.364Z,10.20
2023-02-19T06:51:16.175Z,10.20
2023-02-19T06:53:44.502Z,10.20
2023-02-19T06:56:25.161Z,10.20
2023-02-19T06:58:54.039Z,10.30
2023-02-19T07:01:24.823Z,10.30
2023-02-19T07:03:53.648Z,10.30
2023-02-19T07:06:22.769Z,10.30
2023-02-19T07:08:52.245Z,10.30
2023-02-19T07:11:20.608Z,10.30
2023-02-19T07:13:48.882Z,10.30
2023-02-19T07:16:18.076Z,10.30
2023-02-19T07:18:47.878Z,10.30
2023-02-19T07:21:17.456Z,10.40
2023-02-19T07:23:46.564Z,10.40
2023-02-19T07:26:17.263Z,10.40
2023-02-19T07:28:46.504Z,10.50
2023-02-19T07:31:15.842Z,10.50
2023-02-19T07:33:44.935Z,10.50
2023-02-19T07:36:16.817Z,10.60
2023-02-19T07:38:45.525Z,10.60
2023-02-19T07:41:14.330Z,10.70
2023-02-19T07:43:42.794Z,10.70
2023-02-19T07:46:13.639Z,10.70
2023-02-19T07:48:44.335Z,10.70
2023-02-19T07:51:16.676Z,10.70
2023-02-19T07:53:45.013Z,10.80
2023-02-19T07:56:14.191Z,10.90
2023-02-19T07:58:42.893Z,10.90
2023-02-19T08:01:14.740Z,11.00
2023-02-19T08:03:42.777Z,11.00
2023-02-19T08:06:12.201Z,11.10
2023-02-19T08:08:41.880Z,11.20
2023-02-19T08:11:28.596Z,11.20
2023-02-19T08:13:56.989Z,11.20
2023-02-19T08:16:40.670Z,11.20
2023-02-19T08:19:10.935Z,11.10
2023-02-19T08:21:39.194Z,11.10
2023-02-19T08:24:09.052Z,11.10
2023-02-19T08:26:37.927Z,11.30
2023-02-19T08:29:06.931Z,11.40
2023-02-19T08:31:35.961Z,11.60
2023-02-19T08:34:04.499Z,11.70
2023-02-19T08:36:32.788Z,11.80
2023-02-19T08:39:01.133Z,11.80
2023-02-19T08:41:30.932Z,11.80
2023-02-19T08:43:59.245Z,11.80
2023-02-19T08:46:27.542Z,11.80
2023-02-19T08:48:55.920Z,11.80
2023-02-19T08:51:24.240Z,11.80
2023-02-19T08:53:52.594Z,11.80
2023-02-19T08:56:20.938Z,11.80
2023-02-19T08:58:50.611Z,11.90
2023-02-19T09:01:19.452Z,12.00
2023-02-19T09:03:48.014Z,12.00
2023-02-19T09:06:18.046Z,12.00
2023-02-19T09:08:46.533Z,11.80
2023-02-19T09:11:15.332Z,11.60
2023-02-19T09:13:44.226Z,11.20
2023-02-19T09:16:14.346Z,11.00
2023-02-19T09:18:42.685Z,11.20
2023-02-19T09:21:11.340Z,11.20
2023-02-19T09:23:39.972Z,11.40
2023-02-19T09:26:10.134Z,11.60
2023-02-19T09:28:41.648Z,11.70
2023-02-19T09:31:12.567Z,11.90
2023-02-19T09:33:45.359Z,12.00
2023-02-19T09:36:14.176Z,12.10
2023-02-19T09:38:42.574Z,12.00
2023-02-19T09:41:18.113Z,12.20
2023-02-19T09:43:46.968Z,12.30
2023-02-19T09:46:26.426Z,12.40
2023-02-19T09:49:01.080Z,12.40
2023-02-19T09:51:30.879Z,12.50
2023-02-19T09:53:59.609Z,12.40
2023-02-19T09:56:28.567Z,12.40
2023-02-19T09:58:59.628Z,12.40
2023-02-19T10:01:33.374Z,12.50
2023-02-19T10:04:03.146Z,12.50
2023-02-19T10:06:36.247Z,12.50
2023-02-19T10:09:18.206Z,12.50
2023-02-19T10:11:47.099Z,12.30
2023-02-19T10:14:18.705Z,12.20
2023-02-19T10:16:49.611Z,12.10
2023-02-19T10:19:19.488Z,11.90
2023-02-19T10:21:48.035Z,11.60
2023-02-19T10:24:22.401Z,11.40
2023-02-19T10:26:51.695Z,11.40
2023-02-19T10:29:21.653Z,11.70
2023-02-19T10:31:53.269Z,11.90
2023-02-19T10:34:24.609Z,12.30
2023-02-19T10:36:54.824Z,12.60
2023-02-19T10:39:51.334Z,12.90
2023-02-19T10:42:22.966Z,13.10
2023-02-19T10:44:58.634Z,13.10
2023-02-19T10:47:30.105Z,13.30
2023-02-19T10:50:04.366Z,13.40
2023-02-19T10:52:35.375Z,13.40
2023-02-19T10:55:17.870Z,13.50
2023-02-19T10:57:46.907Z,13.60
2023-02-19T11:00:26.578Z,13.70
2023-02-19T11:03:18.627Z,13.50
2023-02-19T11:06:01.160Z,13.60
2023-02-19T11:08:30.421Z,13.80
2023-02-19T11:10:58.746Z,13.80
2023-02-19T11:13:32.635Z,13.90
2023-02-19T11:16:01.871Z,14.00
2023-02-19T11:18:32.900Z,13.80
2023-02-19T11:21:04.717Z,14.10
2023-02-19T11:23:35.597Z,14.20
2023-02-19T11:26:07.180Z,14.00
2023-02-19T11:28:38.088Z,13.90
2023-02-19T11:31:23.662Z,14.00
2023-02-19T11:33:56.716Z,13.60
2023-02-19T11:36:37.448Z,13.40
2023-02-19T11:39:21.790Z,13.10
2023-02-19T11:42:08.651Z,13.00
2023-02-19T11:44:50.624Z,12.70
2023-02-19T11:47:49.417Z,12.50
2023-02-19T11:50:24.274Z,12.50
2023-02-19T11:53:06.456Z,12.50
2023-02-19T11:55:48.529Z,12.80
2023-02-19T11:58:46.553Z,13.00
2023-02-19T12:01:24.173Z,12.90
2023-02-19T12:04:07.325Z,12.70
2023-02-19T12:06:45.194Z,12.80
2023-02-19T12:09:37.775Z,13.00
2023-02-19T12:12:17.769Z,13.00
2023-02-19T12:15:04.085Z,12.90
2023-02-19T12:17:49.032Z,12.60
2023-02-19T12:20:27.649Z,12.60
2023-02-19T12:23:25.074Z,12.60
2023-02-19T12:26:01.392Z,12.70
2023-02-19T12:28:53.451Z,12.70
2023-02-19T12:31:48.191Z,12.90
2023-02-19T12:34:44.504Z,13.10
2023-02-19T12:37:26.448Z,13.20
2023-02-19T12:40:12.578Z,13.20
2023-02-19T12:42:53.984Z,13.30
2023-02-19T12:45:27.873Z,13.40
2023-02-19T12:48:02.622Z,13.40
2023-02-19T12:50:31.792Z,13.50
2023-02-19T12:53:07.258Z,13.40
2023-02-19T12:55:40.252Z,13.40
2023-02-19T12:58:16.698Z,13.40
2023-02-19T13:00:50.458Z,13.30
2023-02-19T13:03:24.853Z,13.30
2023-02-19T13:05:59.417Z,12.80
2023-02-19T13:08:34.178Z,12.60
2023-02-19T13:11:06.372Z,12.60
2023-02-19T13:13:42.010Z,12.60
2023-02-19T13:16:15.100Z,12.50
2023-02-19T13:18:48.044Z,12.50
2023-02-19T13:21:38.692Z,12.50
2023-02-19T13:24:11.171Z,12.40
2023-02-19T13:26:55.302Z,12.50
2023-02-19T13:29:42.645Z,12.30
2023-02-19T13:32:24.835Z,12.40
2023-02-19T13:35:05.559Z,12.50
2023-02-19T13:37:35.417Z,12.60
2023-02-19T13:40:07.918Z,12.60
2023-02-19T13:42:37.631Z,12.60
2023-02-19T13:45:08.370Z,12.70
2023-02-19T13:47:59.683Z,12.60
2023-02-19T13:50:30.209Z,12.40
2023-02-19T13:53:00.654Z,12.20
2023-02-19T13:55:52.391Z,12.10
2023-02-19T13:58:55.047Z,11.90
2023-02-19T14:02:17.744Z,11.70
2023-02-19T14:04:52.573Z,11.60
2023-02-19T14:07:36.962Z,11.60
2023-02-19T14:10:12.289Z,11.40
2023-02-19T14:12:40.645Z,11.30
2023-02-19T14:15:44.580Z,11.20
2023-02-19T14:18:44.506Z,11.20
2023-02-19T14:21:26.144Z,11.30
2023-02-19T14:23:57.136Z,11.30
2023-02-19T14:26:27.652Z,11.30
2023-02-19T14:28:56.100Z,11.30
2023-02-19T14:31:29.872Z,11.30
2023-02-19T14:34:00.775Z,11.40
2023-02-19T14:36:35.894Z,11.30
2023-02-19T14:39:08.096Z,11.20
2023-02-19T14:41:42.687Z,11.20
2023-02-19T14:44:17.470Z,11.10
2023-02-19T14:46:59.898Z,11.00
2023-02-19T14:49:33.638Z,10.90
2023-02-19T14:52:07.616Z,11.00
2023-02-19T14:54:48.052Z,11.00
2023-02-19T14:57:21.658Z,10.90
2023-02-19T14:59:55.339Z,10.90
2023-02-19T15:02:25.952Z,10.90
2023-02-19T15:04:54.837Z,10.80
2023-02-19T15:07:26.106Z,10.80
2023-02-19T15:09:58.649Z,10.80
2023-02-19T15:12:29.951Z,10.70
2023-02-19T15:15:03.833Z,10.70
2023-02-19T15:17:34.532Z,10.70
2023-02-19T15:20:06.450Z,10.70
2023-02-19T15:22:36.538Z,10.60
2023-02-19T15:25:06.203Z,10.50
2023-02-19T15:27:35.499Z,10.40
2023-02-19T15:30:04.060Z,10.30
2023-02-19T15:32:33.088Z,10.20
2023-02-19T15:35:03.906Z,10.20
2023-02-19T15:37:36.659Z,10.10
2023-02-19T15:40:09.206Z,10.10
2023-02-19T15:42:38.392Z,10.20
2023-02-19T15:45:14.543Z,10.30
2023-02-19T15:47:47.358Z,10.30
2023-02-19T15:50:18.750Z,10.30
2023-02-19T15:52:59.320Z,10.30
2023-02-19T15:55:36.988Z,10.40
2023-02-19T15:58:10.782Z,10.30
2023-02-19T16:00:42.814Z,10.30
2023-02-19T16:03:18.965Z,10.20
2023-02-19T16:05:47.700Z,10.10
2023-02-19T16:08:23.641Z,10.10
2023-02-19T16:10:56.904Z,10.10
2023-02-19T16:13:26.965Z,10.10
2023-02-19T16:16:04.542Z,10.00
2023-02-19T16:18:32.971Z,9.80
2023-02-19T16:21:02.242Z,9.90
2023-02-19T16:23:32.045Z,9.80
2023-02-19T16:26:02.095Z,9.80
2023-02-19T16:28:37.504Z,9.70
2023-02-19T16:31:08.145Z,9.60
2023-02-19T16:33:39.472Z,9.60
2023-02-19T16:36:36.187Z,9.60
2023-02-19T16:39:21.121Z,9.60
2023-02-19T16:42:14.641Z,9.60
2023-02-19T16:44:44.262Z,9.60
2023-02-19T16:47:30.319Z,9.50
2023-02-19T16:50:01.165Z,9.40
2023-02-19T16:52:30.286Z,9.30
2023-02-19T16:54:59.969Z,9.30
2023-02-19T16:57:29.227Z,9.30
2023-02-19T16:59:57.515Z,9.30
2023-02-19T17:02:26.514Z,9.30
2023-02-19T17:04:55.854Z,9.30
2023-02-19T17:07:24.529Z,9.40
2023-02-19T17:09:52.811Z,9.60
2023-02-19T17:12:23.230Z,9.50
2023-02-19T17:14:51.546Z,9.40
2023-02-19T17:17:19.828Z,9.40
2023-02-19T17:19:48.458Z,9.20
2023-02-19T17:22:17.763Z,9.20
2023-02-19T17:24:46.495Z,9.20
2023-02-19T17:27:15.079Z,9.20
2023-02-19T17:29:44.758Z,9.20
2023-02-19T17:32:14.447Z,9.20
2023-02-19T17:34:42.903Z,9.20
2023-02-19T17:37:11.199Z,9.20
2023-02-19T17:39:39.571Z,9.10
2023-02-19T17:42:08.321Z,9.10
2023-02-19T17:44:36.629Z,9.20
2023-02-19T17:47:06.599Z,9.30
2023-02-19T17:49:36.262Z,9.20
2023-02-19T17:52:04.626Z,9.10
2023-02-19T17:54:32.931Z,9.10
2023-02-19T17:57:01.244Z,9.00
2023-02-19T17:59:29.493Z,8.90
2023-02-19T18:01:57.786Z,8.80
2023-02-19T18:04:27.474Z,8.80
2023-02-19T18:06:55.906Z,8.80
2023-02-19T18:09:24.660Z,8.80
2023-02-19T18:11:53.264Z,8.80
2023-02-19T18:14:21.724Z,8.90
2023-02-19T18:16:51.171Z,9.00
2023-02-19T18:19:19.969Z,9.00
2023-02-19T18:21:49.853Z,9.00
2023-02-19T18:24:18.256Z,9.00
2023-02-19T18:26:46.770Z,9.00
2023-02-19T18:29:15.049Z,9.00
2023-02-19T18:31:43.505Z,8.90
2023-02-19T18:34:18.329Z,8.90
2023-02-19T18:36:47.264Z,8.80
2023-02-19T18:39:17.537Z,8.80
2023-02-19T18:41:49.881Z,8.70
2023-02-19T18:44:20.224Z,8.60
2023-02-19T18:46:49.008Z,8.50
2023-02-19T18:49:18.151Z,8.40
2023-02-19T18:51:47.363Z,8.30
2023-02-19T18:54:17.105Z,8.20
2023-02-19T18:56:46.260Z,8.20
2023-02-19T18:59:14.994Z,8.00
2023-02-19T19:01:43.421Z,8.00
2023-02-19T19:04:11.928Z,7.90
2023-02-19T19:06:40.368Z,7.80
2023-02-19T19:09:09.169Z,7.70
2023-02-19T19:11:39.158Z,7.60
2023-02-19T19:14:07.481Z,7.50
2023-02-19T19:16:35.873Z,7.40
2023-02-19T19:19:04.297Z,7.30
2023-02-19T19:21:32.731Z,7.20
2023-02-19T19:24:01.081Z,7.10
2023-02-19T19:26:29.406Z,7.10
2023-02-19T19:28:59.226Z,7.00
2023-02-19T19:31:34.493Z,7.00
2023-02-19T19:34:02.829Z,6.90
2023-02-19T19:36:31.176Z,6.90
2023-02-19T19:38:59.536Z,6.90
2023-02-19T19:41:28.223Z,6.90
2023-02-19T19:43:58.031Z,6.80
2023-02-19T19:46:26.409Z,6.70
2023-02-19T19:48:54.731Z,6.60
2023-02-19T19:51:23.088Z,6.50
2023-02-19T19:53:51.477Z,6.50
2023-02-19T19:56:19.841Z,6.50
2023-02-19T19:58:49.548Z,6.40
2023-02-19T20:01:21.114Z,6.40
2023-02-19T20:03:51.053Z,6.30
2023-02-19T20:06:26.791Z,6.30
2023-02-19T20:08:55.662Z,6.20
2023-02-19T20:11:24.271Z,6.10
2023-02-19T20:13:52.724Z,6.00
2023-02-19T20:16:27.075Z,6.00
2023-02-19T20:18:55.630Z,6.00
2023-02-19T20:21:23.943Z,5.90
2023-02-19T20:23:52.300Z,5.90
2023-02-19T20:26:24.539Z,5.80
2023-02-19T20:28:52.894Z,5.80
2023-02-19T20:31:21.861Z,5.70
2023-02-19T20:33:52.252Z,5.70
2023-02-19T20:36:21.218Z,5.60
2023-02-19T20:38:51.217Z,5.60
2023-02-19T20:41:19.545Z,5.50
2023-02-19T20:43:47.861Z,5.40
2023-02-19T20:46:16.250Z,5.40
2023-02-19T20:48:44.583Z,5.40
2023-02-19T20:51:14.310Z,5.30
2023-02-19T20:53:43.531Z,5.30
2023-02-19T20:56:12.562Z,5.30
2023-02-19T20:58:43.373Z,5.20
2023-02-19T21:01:12.284Z,5.20
2023-02-19T21:03:40.550Z,5.20
2023-02-19T21:06:09.221Z,5.20
2023-02-19T21:08:39.090Z,5.10
2023-02-19T21:11:07.466Z,5.10
2023-02-19T21:13:36.138Z,5.10
2023-02-19T21:16:04.649Z,5.10
2023-02-19T21:18:32.974Z,5.00
2023-02-19T21:21:01.324Z,5.10
2023-02-19T21:23:29.659Z,5.00
2023-02-19T21:25:59.502Z,5.00
2023-02-19T21:28:28.078Z,4.90
2023-02-19T21:30:56.764Z,4.90
2023-02-19T21:33:25.314Z,4.90
2023-02-19T21:35:54.016Z,4.90
2023-02-19T21:38:22.548Z,4.80
2023-02-19T21:40:51.105Z,4.80
2023-02-19T21:43:21.122Z,4.80
2023-02-19T21:45:49.602Z,4.80
2023-02-19T21:48:18.073Z,4.80
2023-02-19T21:50:46.472Z,4.70
2023-02-19T21:53:15.645Z,4.70
2023-02-19T21:55:57.968Z,4.60
2023-02-19T21:58:28.519Z,4.60
2023-02-19T22:00:58.098Z,4.60
2023-02-19T22:03:27.009Z,4.60
2023-02-19T22:05:55.516Z,4.60
2023-02-19T22:08:23.833Z,4.50
2023-02-19T22:10:52.108Z,4.50
2023-02-19T22:13:20.543Z,4.50
2023-02-19T22:15:50.276Z,4.50
2023-02-19T22:18:18.599Z,4.50
2023-02-19T22:20:46.950Z,4.50
2023-02-19T22:23:15.391Z,4.40
2023-02-19T22:25:43.686Z,4.40
2023-02-19T22:28:12.059Z,4.40
2023-02-19T22:30:40.980Z,4.40
2023-02-19T22:33:10.693Z,4.40
2023-02-19T22:35:39.151Z,4.40
2023-02-19T22:38:07.605Z,4.40
2023-02-19T22:40:35.895Z,4.40
2023-02-19T22:43:04.217Z,4.30
2023-02-19T22:45:32.604Z,4.40
2023-02-19T22:48:00.966Z,4.40
2023-02-19T22:50:30.715Z,4.40
2023-02-19T22:52:59.193Z,4.40
2023-02-19T22:55:27.442Z,4.40
2023-02-19T22:57:55.752Z,4.40
2023-02-19T23:00:24.197Z,4.40
2023-02-19T23:02:52.539Z,4.40
2023-02-19T23:05:22.609Z,4.40
2023-02-19T23:07:52.316Z,4.30
2023-02-19T23:10:20.634Z,4.30
2023-02-19T23:12:48.921Z,4.30
2023-02-19T23:15:17.363Z,4.30
2023-02-19T23:17:45.636Z,4.30
2023-02-19T23:20:14.475Z,4.30
2023-02-19T23:22:43.585Z,4.40
2023-02-19T23:25:13.312Z,4.40
2023-02-19T23:27:41.637Z,4.40
2023-02-19T23:30:10.626Z,4.50
2023-02-19T23:32:39.024Z,4.50
2023-02-19T23:35:07.857Z,4.50
2023-02-19T23:37:36.161Z,4.60
2023-02-19T23:40:05.108Z,4.60
2023-02-19T23:42:34.856Z,4.60
2023-02-19T23:45:03.305Z,4.60
2023-02-19T23:47:31.692Z,4.50
2023-02-19T23:49:59.970Z,4.50
2023-02-19T23:52:28.263Z,4.60
2023-02-19T23:54:57.322Z,4.60
2023-02-19T23:57:25.689Z,4.50
2023-02-19T23:59:55.455Z,4.50
